Time,TemperatureF,DewpointF,PressureIn,WindDirection,WindDirectionDegrees,WindSpeedMPH,WindSpeedGustMPH,Humidity,HourlyPrecipIn,Conditions,Clouds,dailyrainin,SolarRadiationWatts/m^2,SoftwareType,DateUTC
2013-05-27 00:33:00,54.0,40.0,-100.00,ESE,118,0.0,2.0,59,0.00,,,0.00,5.000000,,2013-05-27 08:33:00,
2013-05-27 01:33:00,52.0,40.0,-100.00,NE,49,1.0,5.0,63,-99.99,,,0.00,0.000000,,2013-05-27 09:33:00,
2013-05-27 02:32:00,50.0,41.0,-100.00,SE,128,0.0,5.0,71,-99.99,,,0.00,0.000000,,2013-05-27 10:32:00,
2013-05-27 03:11:00,50.0,41.0,-100.00,SE,128,0.0,5.0,71,-99.99,,,0.00,0.000000,,2013-05-27 11:11:00,
2013-05-27 03:32:00,45.0,37.0,-100.00,ENE,73,0.0,5.0,74,-99.99,,,0.00,0.000000,,2013-05-27 11:32:00,
2013-05-27 04:32:00,41.0,36.0,-100.00,South,191,0.0,6.0,82,-99.99,,,0.00,5.000000,,2013-05-27 12:32:00,
2013-05-27 05:42:00,41.0,37.0,-100.00,SSE,158,1.0,3.0,86,-99.99,,,0.00,23.000000,,2013-05-27 13:42:00,
2013-05-27 05:52:00,41.0,37.0,-100.00,SSE,158,1.0,3.0,86,-99.99,,,0.00,23.000000,,2013-05-27 13:52:00,
2013-05-27 06:42:00,49.0,41.0,-100.00,SSE,151,0.0,3.0,73,-99.99,,,0.00,74.000000,,2013-05-27 14:42:00,
2013-05-27 06:52:00,49.0,41.0,-100.00,SSE,151,0.0,3.0,73,-99.99,,,0.00,74.000000,,2013-05-27 14:52:00,
2013-05-27 07:01:00,49.0,41.0,-100.00,SSE,151,0.0,3.0,73,-99.99,,,0.00,74.000000,,2013-05-27 15:01:00,
2013-05-27 07:11:00,49.0,41.0,-100.00,SSE,151,0.0,3.0,73,-99.99,,,0.00,74.000000,,2013-05-27 15:11:00,
2013-05-27 07:33:00,56.0,42.0,-100.00,NNE,18,0.0,3.0,60,0.00,,,0.00,139.000000,,2013-05-27 15:33:00,
2013-05-27 07:43:00,56.0,42.0,-100.00,NNE,18,0.0,3.0,60,0.00,,,0.00,139.000000,,2013-05-27 15:43:00,
2013-05-27 07:53:00,56.0,42.0,-100.00,NNE,18,0.0,3.0,60,0.00,,,0.00,139.000000,,2013-05-27 15:53:00,
2013-05-27 08:02:00,56.0,42.0,-100.00,NNE,18,0.0,3.0,60,0.00,,,0.00,139.000000,,2013-05-27 16:02:00,
2013-05-27 08:12:00,56.0,42.0,-100.00,NNE,18,0.0,3.0,60,0.00,,,0.00,139.000000,,2013-05-27 16:12:00,
2013-05-27 08:33:00,67.0,43.0,-100.00,SSE,148,1.0,3.0,41,0.00,,,0.00,319.000000,,2013-05-27 16:33:00,
2013-05-27 09:02:00,67.0,43.0,-100.00,SSE,148,1.0,3.0,41,0.00,,,0.00,319.000000,,2013-05-27 17:02:00,
2013-05-27 09:11:00,67.0,43.0,-100.00,SSE,148,1.0,3.0,41,0.00,,,0.00,319.000000,,2013-05-27 17:11:00,
2013-05-27 09:32:00,71.0,38.0,-100.00,ENE,71,2.0,6.0,30,0.00,,,0.00,443.000000,,2013-05-27 17:32:00,
2013-05-27 10:02:00,71.0,38.0,-100.00,ENE,71,2.0,6.0,30,0.00,,,0.00,443.000000,,2013-05-27 18:02:00,
2013-05-27 10:11:00,71.0,38.0,-100.00,ENE,71,2.0,6.0,30,0.00,,,0.00,443.000000,,2013-05-27 18:11:00,
2013-05-27 10:32:00,74.0,37.0,-100.00,East,83,3.0,7.0,26,0.00,,,0.00,451.000000,,2013-05-27 18:32:00,
2013-05-27 10:42:00,74.0,37.0,-100.00,East,83,3.0,7.0,26,0.00,,,0.00,451.000000,,2013-05-27 18:42:00,
2013-05-27 10:52:00,74.0,37.0,-100.00,East,83,3.0,7.0,26,0.00,,,0.00,451.000000,,2013-05-27 18:52:00,
2013-05-27 11:01:00,74.0,37.0,-100.00,East,83,3.0,7.0,26,0.00,,,0.00,451.000000,,2013-05-27 19:01:00,
2013-05-27 11:11:00,74.0,37.0,-100.00,East,83,3.0,7.0,26,0.00,,,0.00,451.000000,,2013-05-27 19:11:00,
2013-05-27 11:32:00,75.0,36.0,-100.00,ESE,105,2.0,9.0,24,0.00,,,0.00,545.000000,,2013-05-27 19:32:00,
2013-05-27 11:42:00,75.0,36.0,-100.00,ESE,105,2.0,9.0,24,0.00,,,0.00,545.000000,,2013-05-27 19:42:00,
2013-05-27 11:52:00,75.0,36.0,-100.00,ESE,105,2.0,9.0,24,0.00,,,0.00,545.000000,,2013-05-27 19:52:00,
2013-05-27 12:01:00,75.0,36.0,-100.00,ESE,105,2.0,9.0,24,0.00,,,0.00,545.000000,,2013-05-27 20:01:00,
2013-05-27 12:11:00,75.0,36.0,-100.00,ESE,105,2.0,9.0,24,0.00,,,0.00,545.000000,,2013-05-27 20:11:00,
2013-05-27 12:32:00,79.0,38.0,-100.00,WSW,250,2.0,7.0,23,0.00,,,0.00,720.000000,,2013-05-27 20:32:00,
2013-05-27 12:42:00,79.0,38.0,-100.00,WSW,250,2.0,7.0,23,0.00,,,0.00,720.000000,,2013-05-27 20:42:00,
2013-05-27 12:52:00,79.0,38.0,-100.00,WSW,250,2.0,7.0,23,0.00,,,0.00,720.000000,,2013-05-27 20:52:00,
2013-05-27 13:01:00,79.0,38.0,-100.00,WSW,250,2.0,7.0,23,0.00,,,0.00,720.000000,,2013-05-27 21:01:00,
2013-05-27 13:11:00,79.0,38.0,-100.00,WSW,250,2.0,7.0,23,0.00,,,0.00,720.000000,,2013-05-27 21:11:00,
2013-05-27 13:33:00,82.0,37.0,-100.00,South,189,2.0,7.0,20,0.00,,,0.00,872.000000,,2013-05-27 21:33:00,
2013-05-27 13:43:00,82.0,37.0,-100.00,South,189,2.0,7.0,20,0.00,,,0.00,872.000000,,2013-05-27 21:43:00,
2013-05-27 13:53:00,82.0,37.0,-100.00,South,189,2.0,7.0,20,0.00,,,0.00,872.000000,,2013-05-27 21:53:00,
2013-05-27 14:02:00,82.0,37.0,-100.00,South,189,2.0,7.0,20,0.00,,,0.00,872.000000,,2013-05-27 22:02:00,
2013-05-27 14:12:00,82.0,37.0,-100.00,South,189,2.0,7.0,20,0.00,,,0.00,872.000000,,2013-05-27 22:12:00,
2013-05-27 14:33:00,83.0,38.0,-100.00,West,276,3.0,10.0,20,0.00,,,0.00,867.000000,,2013-05-27 22:33:00,
2013-05-27 14:42:00,83.0,38.0,-100.00,West,276,3.0,10.0,20,0.00,,,0.00,867.000000,,2013-05-27 22:42:00,
2013-05-27 14:53:00,83.0,38.0,-100.00,West,276,3.0,10.0,20,0.00,,,0.00,867.000000,,2013-05-27 22:53:00,
2013-05-27 15:02:00,83.0,38.0,-100.00,West,276,3.0,10.0,20,0.00,,,0.00,867.000000,,2013-05-27 23:02:00,
2013-05-27 15:12:00,83.0,38.0,-100.00,West,276,3.0,10.0,20,0.00,,,0.00,867.000000,,2013-05-27 23:12:00,
2013-05-27 15:42:00,83.0,36.0,-100.00,ENE,64,2.0,8.0,19,0.00,,,0.00,858.000000,,2013-05-27 23:42:00,
2013-05-27 15:52:00,83.0,36.0,-100.00,ENE,64,2.0,8.0,19,0.00,,,0.00,858.000000,,2013-05-27 23:52:00,
2013-05-27 16:01:00,83.0,36.0,-100.00,ENE,64,2.0,8.0,19,0.00,,,0.00,858.000000,,2013-05-28 00:01:00,
2013-05-27 16:11:00,83.0,36.0,-100.00,ENE,64,2.0,8.0,19,0.00,,,0.00,858.000000,,2013-05-28 00:11:00,
2013-05-27 17:32:00,79.0,37.0,-100.00,NE,52,2.0,11.0,22,-99.99,,,0.00,314.000000,,2013-05-28 01:32:00,
2013-05-27 17:42:00,79.0,37.0,-100.00,NE,52,2.0,11.0,22,-99.99,,,0.00,314.000000,,2013-05-28 01:42:00,
2013-05-27 17:52:00,79.0,37.0,-100.00,NE,52,2.0,11.0,22,-99.99,,,0.00,314.000000,,2013-05-28 01:52:00,
2013-05-27 18:02:00,79.0,37.0,-100.00,NE,52,2.0,11.0,22,-99.99,,,0.00,314.000000,,2013-05-28 02:02:00,
2013-05-27 18:11:00,79.0,37.0,-100.00,NE,52,2.0,11.0,22,-99.99,,,0.00,314.000000,,2013-05-28 02:11:00,
2013-05-27 18:32:00,80.0,39.0,-100.00,East,95,0.0,6.0,23,0.00,,,0.00,194.000000,,2013-05-28 02:32:00,
2013-05-27 18:42:00,80.0,39.0,-100.00,East,95,0.0,6.0,23,0.00,,,0.00,194.000000,,2013-05-28 02:42:00,
2013-05-27 18:52:00,80.0,39.0,-100.00,East,95,0.0,6.0,23,0.00,,,0.00,194.000000,,2013-05-28 02:52:00,
2013-05-27 19:01:00,80.0,39.0,-100.00,East,95,0.0,6.0,23,0.00,,,0.00,194.000000,,2013-05-28 03:01:00,
2013-05-27 19:11:00,80.0,39.0,-100.00,East,95,0.0,6.0,23,0.00,,,0.00,194.000000,,2013-05-28 03:11:00,
2013-05-27 19:33:00,79.0,34.0,-100.00,North,358,0.0,3.0,20,0.00,,,0.00,228.000000,,2013-05-28 03:33:00,
2013-05-27 19:43:00,79.0,34.0,-100.00,North,358,0.0,3.0,20,0.00,,,0.00,228.000000,,2013-05-28 03:43:00,
2013-05-27 19:53:00,79.0,34.0,-100.00,North,358,0.0,3.0,20,0.00,,,0.00,228.000000,,2013-05-28 03:53:00,
2013-05-27 20:02:00,79.0,34.0,-100.00,North,358,0.0,3.0,20,0.00,,,0.00,228.000000,,2013-05-28 04:02:00,
2013-05-27 20:12:00,79.0,34.0,-100.00,North,358,0.0,3.0,20,0.00,,,0.00,228.000000,,2013-05-28 04:12:00,
2013-05-27 20:33:00,78.0,38.0,-100.00,North,352,1.0,4.0,24,0.00,,,0.00,155.000000,,2013-05-28 04:33:00,
2013-05-27 20:43:00,78.0,38.0,-100.00,North,352,1.0,4.0,24,0.00,,,0.00,155.000000,,2013-05-28 04:43:00,
2013-05-27 20:52:00,78.0,38.0,-100.00,North,352,1.0,4.0,24,0.00,,,0.00,155.000000,,2013-05-28 04:52:00,
2013-05-27 21:02:00,78.0,38.0,-100.00,North,352,1.0,4.0,24,0.00,,,0.00,155.000000,,2013-05-28 05:02:00,
2013-05-27 21:12:00,78.0,38.0,-100.00,North,352,1.0,4.0,24,0.00,,,0.00,155.000000,,2013-05-28 05:12:00,
2013-05-27 21:33:00,70.0,40.0,-100.00,NNW,334,0.0,4.0,34,0.00,,,0.00,92.000000,,2013-05-28 05:33:00,
2013-05-27 22:02:00,70.0,40.0,-100.00,NNW,334,0.0,4.0,34,0.00,,,0.00,92.000000,,2013-05-28 06:02:00,
2013-05-27 22:11:00,70.0,40.0,-100.00,NNW,334,0.0,4.0,34,0.00,,,0.00,92.000000,,2013-05-28 06:11:00,
2013-05-27 22:32:00,62.0,46.0,-100.00,NE,55,0.0,1.0,56,0.00,,,0.00,34.000000,,2013-05-28 06:32:00,
2013-05-27 23:32:00,57.0,45.0,-100.00,NE,41,0.0,2.0,64,0.00,,,0.00,25.000000,,2013-05-28 07:32:00,